Vila Flor, Brazil
Current Conditions -  °F | °C
As of 11:00 AM on Monday 26 Jan 2015 (Local Time) from SBNT Reporting Station
Few Clouds Few Clouds  
Wind Chill: 88°   Ceiling: Unl
Heat Index: 90°   Visibility: 6mi
Dew Point: 66°   Wind: 16mph
Humidity: 49%   Direction: 120°ESE
Pressure: 29.94"   Gusts: NA
Location:  6.31°S, 35.08°W
Report Text: SBNT 261400Z 12014KT 9999 FEW030 31/19 Q1014
Loading
Personal Weather Stations






























Interactive Weather Map New forecast layout! Learn more

10-Day Weather Forecast

Advertisements
Track Severe Weather on mobile